Time;durP1;ratioP1;P1;durP2;ratioP2;P2;SDS_P1;SDS_P2;PMS_P1;PMS_P2;Temp;Humidity;BMP_temperature;BMP_pressure;BME280_temperature;BME280_humidity;BME280_pressure;Samples;Min_cycle;Max_cycle;Signal;HPM_P1;HPM_P2
2023/03/22 00:00:26;;;;;;;14.27;7.63;;;12.60;99.90;;;;;;7280718;19;20300;-76
2023/03/22 00:02:54;;;;;;;15.27;7.80;;;12.60;99.90;;;;;;7286874;19;20691;-76
2023/03/22 00:05:20;;;;;;;15.63;7.87;;;12.50;99.90;;;;;;7285817;19;20195;-75
2023/03/22 00:07:49;;;;;;;15.07;7.47;;;12.50;99.90;;;;;;7287883;19;20203;-76
2023/03/22 00:10:15;;;;;;;14.27;7.40;;;12.50;99.90;;;;;;7287192;19;20190;-75
2023/03/22 00:12:41;;;;;;;16.80;7.97;;;12.50;99.90;;;;;;7283961;19;20190;-76
2023/03/22 00:15:08;;;;;;;14.97;7.87;;;12.50;99.90;;;;;;7286535;19;20654;-76
2023/03/22 00:17:35;;;;;;;14.13;7.67;;;12.50;99.90;;;;;;7309460;19;20195;-76
2023/03/22 00:20:05;;;;;;;14.17;7.60;;;12.40;99.90;;;;;;7287389;19;20296;-76
2023/03/22 00:22:31;;;;;;;16.73;7.77;;;12.40;99.90;;;;;;7288062;19;20189;-76
2023/03/22 00:24:57;;;;;;;16.80;7.10;;;12.40;99.90;;;;;;7285060;19;20198;-76
2023/03/22 00:27:22;;;;;;;14.43;7.80;;;12.40;99.90;;;;;;7287260;19;20234;-76
2023/03/22 00:29:51;;;;;;;14.73;7.63;;;12.30;99.90;;;;;;7286255;19;20218;-76
2023/03/22 00:32:16;;;;;;;16.70;7.50;;;12.30;99.90;;;;;;7286283;19;20530;-75
2023/03/22 00:34:42;;;;;;;16.00;7.97;;;12.30;99.90;;;;;;7286171;19;20214;-76
2023/03/22 00:37:08;;;;;;;13.60;7.63;;;12.30;99.90;;;;;;7283141;19;20228;-76
2023/03/22 00:39:34;;;;;;;17.30;7.10;;;12.30;99.90;;;;;;7308126;19;20704;-77
2023/03/22 00:42:00;;;;;;;15.87;7.93;;;12.30;99.90;;;;;;7287490;19;20646;-76
2023/03/22 00:44:25;;;;;;;15.50;7.50;;;12.30;99.90;;;;;;7284555;19;20655;-76
2023/03/22 00:46:51;;;;;;;13.30;6.90;;;12.30;99.90;;;;;;7285802;19;20190;-76
2023/03/22 00:49:17;;;;;;;15.47;7.23;;;12.20;99.90;;;;;;7285053;19;20197;-76
2023/03/22 00:51:43;;;;;;;13.70;6.77;;;12.30;99.90;;;;;;7285516;19;20197;-77
2023/03/22 00:54:10;;;;;;;15.30;7.40;;;12.20;99.90;;;;;;7285915;19;20193;-76
2023/03/22 00:56:37;;;;;;;17.77;7.13;;;12.20;99.90;;;;;;7284417;19;20649;-76
2023/03/22 00:59:12;;;;;;;13.60;6.77;;;12.20;99.90;;;;;;7285670;19;20648;-76
2023/03/22 01:01:39;;;;;;;14.03;6.43;;;12.20;99.90;;;;;;7283320;19;20201;-76
2023/03/22 01:04:05;;;;;;;14.33;6.90;;;12.10;99.90;;;;;;7296375;19;20646;-76
2023/03/22 01:06:32;;;;;;;11.97;6.20;;;12.10;99.90;;;;;;7305426;19;20224;-77
2023/03/22 01:08:58;;;;;;;14.27;6.90;;;12.10;99.90;;;;;;7284510;19;20644;-76
2023/03/22 01:11:25;;;;;;;20.07;7.40;;;12.10;99.90;;;;;;7283006;19;21731;-76
2023/03/22 01:13:50;;;;;;;16.60;7.27;;;12.10;99.90;;;;;;7284477;19;20185;-76
2023/03/22 01:16:16;;;;;;;15.47;6.93;;;12.10;99.90;;;;;;7285223;19;20216;-76
2023/03/22 01:18:42;;;;;;;13.30;7.20;;;12.10;99.90;;;;;;7284873;19;20223;-76
2023/03/22 01:21:09;;;;;;;16.13;7.17;;;12.10;99.90;;;;;;7283830;19;20278;-76
2023/03/22 01:23:36;;;;;;;13.33;6.57;;;12.10;99.90;;;;;;7292283;19;20672;-76
2023/03/22 01:26:03;;;;;;;11.73;5.67;;;12.10;99.90;;;;;;7307054;19;20276;-77
2023/03/22 01:28:29;;;;;;;15.50;6.50;;;12.10;99.90;;;;;;7284318;19;20590;-76
2023/03/22 01:30:59;;;;;;;16.07;5.90;;;12.10;99.90;;;;;;7284571;19;20238;-76
2023/03/22 01:33:24;;;;;;;16.40;6.07;;;12.10;99.90;;;;;;7284681;19;20231;-76
2023/03/22 01:35:51;;;;;;;13.53;6.17;;;12.10;99.90;;;;;;7284241;19;20190;-77
2023/03/22 01:38:17;;;;;;;14.80;5.80;;;12.10;99.90;;;;;;7284355;19;20196;-76
2023/03/22 01:40:51;;;;;;;16.97;5.87;;;12.10;99.90;;;;;;7284583;19;20184;-76
2023/03/22 01:43:17;;;;;;;14.50;5.60;;;12.10;99.90;;;;;;7284978;19;20528;-76
2023/03/22 01:45:47;;;;;;;14.90;5.40;;;12.10;99.90;;;;;;7283900;19;20253;-76
2023/03/22 01:48:15;;;;;;;16.10;5.47;;;12.00;99.90;;;;;;7283005;19;20190;-76
2023/03/22 01:50:46;;;;;;;11.23;5.20;;;12.00;99.90;;;;;;7282017;19;20234;-76
2023/03/22 01:53:14;;;;;;;13.30;5.77;;;12.00;99.90;;;;;;7284659;19;20196;-76
2023/03/22 01:55:41;;;;;;;12.40;5.50;;;12.00;99.90;;;;;;7282963;19;20194;-77
2023/03/22 01:58:16;;;;;;;13.57;5.77;;;12.00;99.90;;;;;;7284013;19;21048;-77
2023/03/22 02:00:51;;;;;;;14.57;5.73;;;12.00;99.90;;;;;;7283443;19;20262;-77
2023/03/22 02:03:58;;;;;;;13.23;5.27;;;12.10;99.90;;;;;;7261893;19;20203;-76
2023/03/22 02:06:25;;;;;;;11.33;5.60;;;11.90;99.90;;;;;;7282900;19;20193;-77
2023/03/22 02:09:01;;;;;;;13.93;5.70;;;11.90;99.90;;;;;;7283133;19;20181;-77
2023/03/22 02:11:32;;;;;;;14.07;5.70;;;11.90;99.90;;;;;;7281885;19;20199;-76
2023/03/22 02:14:24;;;;;;;11.00;5.30;;;11.90;99.90;;;;;;7284527;19;20190;-78
2023/03/22 02:17:32;;;;;;;14.13;5.00;;;11.90;99.90;;;;;;7078437;19;2004626;-77
2023/03/22 02:20:56;;;;;;;11.77;4.80;;;12.00;99.90;;;;;;7283282;19;20195;-76
2023/03/22 02:23:36;;;;;;;13.33;5.33;;;12.00;99.90;;;;;;7076044;19;2004950;-75
2023/03/22 02:26:38;;;;;;;13.23;4.67;;;12.10;99.90;;;;;;7282701;19;20610;-76
2023/03/22 02:29:36;;;;;;;13.53;4.97;;;12.10;99.90;;;;;;7181971;19;2006240;-75
2023/03/22 02:32:22;;;;;;;15.50;5.23;;;12.10;99.90;;;;;;7180603;19;2004521;-75
2023/03/22 02:35:17;;;;;;;11.77;4.80;;;12.00;99.90;;;;;;7181168;19;2004933;-76
2023/03/22 02:38:11;;;;;;;12.00;4.90;;;12.10;99.90;;;;;;7180306;19;2004886;-75
2023/03/22 02:40:49;;;;;;;11.73;5.00;;;12.00;99.90;;;;;;7260479;19;20189;-76
2023/03/22 02:43:32;;;;;;;13.23;5.00;;;12.10;99.90;;;;;;7282163;19;20197;-75
2023/03/22 02:46:07;;;;;;;15.97;4.87;;;12.00;99.90;;;;;;7281724;19;20200;-76
2023/03/22 02:48:44;;;;;;;12.27;5.00;;;12.10;99.90;;;;;;7283307;19;20184;-75
2023/03/22 02:51:30;;;;;;;13.47;4.20;;;12.00;99.90;;;;;;7179808;19;2004409;-75
2023/03/22 02:54:08;;;;;;;14.50;4.60;;;12.00;99.90;;;;;;7283733;19;20190;-75
2023/03/22 02:56:45;;;;;;;11.13;4.43;;;12.00;99.90;;;;;;7282497;19;20204;-74
2023/03/22 02:59:12;;;;;;;14.50;5.03;;;12.00;99.90;;;;;;7180233;19;2004563;-75
2023/03/22 03:01:56;;;;;;;16.33;4.80;;;12.00;99.90;;;;;;7281476;19;20193;-75
2023/03/22 03:04:28;;;;;;;13.47;4.67;;;11.90;99.90;;;;;;7281098;19;20193;-75
2023/03/22 03:07:04;;;;;;;10.60;3.60;;;11.90;99.90;;;;;;7282345;19;20192;-75
2023/03/22 03:09:31;;;;;;;11.07;3.77;;;11.90;99.90;;;;;;7282361;19;20206;-76
2023/03/22 03:11:58;;;;;;;10.77;3.97;;;11.90;99.90;;;;;;7281596;19;20280;-75
2023/03/22 03:14:30;;;;;;;13.87;4.10;;;11.80;99.90;;;;;;7283122;19;21033;-76
2023/03/22 03:17:23;;;;;;;13.43;4.13;;;11.80;99.90;;;;;;7282280;19;20187;-76
2023/03/22 03:19:56;;;;;;;13.20;4.20;;;11.80;99.90;;;;;;7178357;19;2004335;-76
2023/03/22 03:22:41;;;;;;;12.37;4.20;;;11.80;99.90;;;;;;7282130;19;20190;-76
2023/03/22 03:25:25;;;;;;;9.60;3.60;;;11.80;99.90;;;;;;7259955;19;20213;-76
2023/03/22 03:28:03;;;;;;;14.03;4.07;;;11.70;99.90;;;;;;7282386;19;20196;-76
2023/03/22 03:30:55;;;;;;;13.87;3.67;;;11.60;99.90;;;;;;7281904;19;20268;-77
2023/03/22 03:33:26;;;;;;;13.10;3.80;;;11.50;99.90;;;;;;7178999;19;2005062;-76
2023/03/22 03:36:01;;;;;;;9.20;3.57;;;11.50;99.90;;;;;;7285613;19;20734;-76
2023/03/22 03:38:31;;;;;;;11.03;3.63;;;11.50;99.90;;;;;;7288291;19;20201;-76
2023/03/22 03:41:19;;;;;;;11.07;3.53;;;11.50;99.90;;;;;;7287176;19;20192;-76
2023/03/22 03:43:47;;;;;;;10.40;3.63;;;11.40;99.90;;;;;;7184521;19;2004632;-76
2023/03/22 03:46:14;;;;;;;11.03;3.67;;;11.40;99.90;;;;;;7287949;19;20193;-76
2023/03/22 03:48:43;;;;;;;12.90;3.90;;;11.40;99.90;;;;;;7288009;19;20204;-76
2023/03/22 03:51:09;;;;;;;15.10;4.43;;;11.40;99.90;;;;;;7287463;19;20260;-76
2023/03/22 03:53:35;;;;;;;14.53;4.00;;;11.50;99.90;;;;;;7302897;19;20209;-76
2023/03/22 03:56:01;;;;;;;13.40;4.07;;;11.40;99.90;;;;;;7301313;19;20265;-76
2023/03/22 03:58:33;;;;;;;12.87;4.07;;;11.50;99.90;;;;;;7288240;19;20194;-77
2023/03/22 04:00:59;;;;;;;12.23;4.30;;;11.50;99.90;;;;;;7288117;19;20200;-77
2023/03/22 04:03:54;;;;;;;15.57;4.60;;;11.50;99.90;;;;;;7184481;19;2004788;-76
2023/03/22 04:06:58;;;;;;;18.30;5.03;;;11.40;99.90;;;;;;7185501;19;2004723;-76
2023/03/22 04:09:29;;;;;;;12.03;4.27;;;11.40;99.90;;;;;;7288316;19;20182;-76
2023/03/22 04:12:00;;;;;;;12.27;4.47;;;11.40;99.90;;;;;;7287633;19;20664;-76
2023/03/22 04:14:28;;;;;;;13.33;3.97;;;11.30;99.90;;;;;;7287939;19;20183;-76
2023/03/22 04:16:57;;;;;;;17.10;4.83;;;11.30;99.90;;;;;;7285404;19;20551;-76
2023/03/22 04:19:23;;;;;;;13.27;4.77;;;11.20;99.90;;;;;;7287286;19;20195;-76
2023/03/22 04:21:51;;;;;;;13.63;4.90;;;11.30;99.90;;;;;;7286828;19;20245;-76
2023/03/22 04:24:18;;;;;;;14.47;4.43;;;11.20;99.90;;;;;;7284946;19;20236;-77
2023/03/22 04:26:45;;;;;;;14.60;4.63;;;11.30;99.90;;;;;;7284631;19;20192;-76
2023/03/22 04:29:20;;;;;;;14.13;5.10;;;11.30;99.90;;;;;;7286233;19;20213;-76
2023/03/22 04:31:51;;;;;;;13.20;5.57;;;11.30;99.90;;;;;;7285743;19;20192;-77
2023/03/22 04:34:23;;;;;;;12.27;5.43;;;11.40;99.90;;;;;;7287216;19;20555;-76
2023/03/22 04:36:56;;;;;;;14.60;5.27;;;11.30;99.90;;;;;;7286496;19;20277;-76
2023/03/22 04:39:30;;;;;;;17.13;5.40;;;11.40;99.90;;;;;;7287134;19;20193;-76
2023/03/22 04:42:25;;;;;;;16.43;5.33;;;11.40;99.90;;;;;;7182306;19;2004697;-76
2023/03/22 04:45:02;;;;;;;16.47;5.73;;;11.40;99.90;;;;;;7286855;19;20195;-76
2023/03/22 04:47:29;;;;;;;18.33;5.10;;;11.50;99.90;;;;;;7284881;19;20199;-76
2023/03/22 04:49:56;;;;;;;16.17;4.70;;;11.50;99.90;;;;;;7285692;19;20209;-76
2023/03/22 04:52:22;;;;;;;15.40;4.50;;;11.60;99.90;;;;;;7285490;19;20202;-76
2023/03/22 04:54:51;;;;;;;13.83;4.50;;;11.70;99.90;;;;;;7285814;19;20663;-76
2023/03/22 04:57:17;;;;;;;15.30;4.60;;;11.60;99.90;;;;;;7285148;19;20197;-76
2023/03/22 04:59:46;;;;;;;17.53;4.67;;;11.60;99.90;;;;;;7284999;19;20193;-76
2023/03/22 05:02:11;;;;;;;17.80;5.10;;;11.60;99.90;;;;;;7285515;19;20194;-76
2023/03/22 05:04:43;;;;;;;11.80;4.10;;;11.70;99.90;;;;;;7283641;19;20193;-76
2023/03/22 05:07:21;;;;;;;14.03;4.17;;;11.60;99.90;;;;;;7285374;19;20188;-76
2023/03/22 05:09:52;;;;;;;12.90;4.10;;;11.60;99.90;;;;;;7284035;19;20184;-76
2023/03/22 05:12:18;;;;;;;17.67;3.67;;;11.60;99.90;;;;;;7285176;19;20565;-75
2023/03/22 05:14:49;;;;;;;14.47;3.60;;;11.50;99.90;;;;;;7283790;19;20188;-75
2023/03/22 05:17:20;;;;;;;16.87;3.47;;;11.50;99.90;;;;;;7285167;19;20660;-76
2023/03/22 05:19:48;;;;;;;12.70;3.37;;;11.60;99.90;;;;;;7284158;19;20586;-76
2023/03/22 05:22:13;;;;;;;15.00;3.50;;;11.60;99.90;;;;;;7284956;19;20698;-76
2023/03/22 05:24:44;;;;;;;15.17;3.57;;;11.60;99.90;;;;;;7284673;19;20680;-76
2023/03/22 05:27:14;;;;;;;11.87;3.27;;;11.60;99.90;;;;;;7284414;19;20200;-77
2023/03/22 05:29:43;;;;;;;10.40;2.90;;;11.60;99.90;;;;;;7283606;19;20193;-76
2023/03/22 05:32:24;;;;;;;11.97;3.23;;;11.70;99.90;;;;;;7285080;19;20188;-75
2023/03/22 05:34:52;;;;;;;13.70;2.93;;;11.70;99.90;;;;;;7284000;19;20203;-76
2023/03/22 05:37:25;;;;;;;13.10;2.83;;;11.60;99.90;;;;;;7282903;19;21563;-76
2023/03/22 05:39:55;;;;;;;13.67;2.83;;;11.60;99.90;;;;;;7284758;19;20210;-76
2023/03/22 05:42:27;;;;;;;10.43;2.73;;;11.70;99.90;;;;;;7284379;19;20178;-76
2023/03/22 05:44:52;;;;;;;18.43;2.90;;;11.70;99.90;;;;;;7283401;19;20206;-75
2023/03/22 05:47:19;;;;;;;13.47;2.80;;;11.50;99.90;;;;;;7283507;19;20649;-76
2023/03/22 05:50:07;;;;;;;11.97;2.47;;;11.40;99.90;;;;;;7284610;19;20185;-77
2023/03/22 05:52:33;;;;;;;9.30;1.87;;;11.40;99.90;;;;;;7282069;19;20267;-75
2023/03/22 05:55:23;;;;;;;9.07;1.97;;;11.40;99.90;;;;;;7180068;19;2004565;-75
2023/03/22 05:57:55;;;;;;;13.50;2.40;;;11.50;99.90;;;;;;7280850;19;20194;-77
2023/03/22 06:00:22;;;;;;;14.83;2.50;;;11.50;99.90;;;;;;7283286;19;20657;-75
2023/03/22 06:03:17;;;;;;;11.13;2.00;;;11.50;99.90;;;;;;7181690;19;2005133;-76
2023/03/22 06:05:53;;;;;;;11.93;1.90;;;11.70;99.90;;;;;;7283644;19;20189;-75
2023/03/22 06:08:21;;;;;;;17.07;2.47;;;11.60;99.90;;;;;;7283009;19;20181;-75
2023/03/22 06:10:50;;;;;;;13.70;2.53;;;11.60;99.90;;;;;;7282371;19;20574;-74
2023/03/22 06:13:17;;;;;;;14.63;2.10;;;11.40;99.90;;;;;;7281436;19;20189;-75
2023/03/22 06:15:43;;;;;;;14.67;2.87;;;11.40;99.90;;;;;;7281517;19;20189;-76
2023/03/22 06:18:15;;;;;;;9.67;2.37;;;11.40;99.90;;;;;;7283270;19;20193;-76
2023/03/22 06:20:46;;;;;;;13.63;3.27;;;11.50;99.90;;;;;;7283832;19;20235;-76
2023/03/22 06:23:18;;;;;;;16.07;3.50;;;11.50;99.90;;;;;;7283565;19;20201;-76
2023/03/22 06:25:46;;;;;;;12.83;3.50;;;11.50;99.90;;;;;;7283915;19;20659;-75
2023/03/22 06:28:12;;;;;;;14.50;3.53;;;11.50;99.90;;;;;;7282808;19;20184;-76
2023/03/22 06:30:45;;;;;;;15.70;4.17;;;11.50;99.90;;;;;;7284139;19;20188;-76
2023/03/22 06:33:22;;;;;;;17.77;4.00;;;11.70;99.90;;;;;;7285158;19;20181;-76
2023/03/22 06:35:53;;;;;;;15.63;3.83;;;11.70;99.90;;;;;;7283815;19;20716;-76
2023/03/22 06:38:28;;;;;;;15.17;3.53;;;11.80;99.90;;;;;;7283761;19;20178;-76
2023/03/22 06:40:53;;;;;;;14.33;3.23;;;11.70;99.90;;;;;;7281348;19;20197;-76
2023/03/22 06:43:19;;;;;;;14.50;3.40;;;11.70;99.90;;;;;;7283610;19;20534;-76
2023/03/22 06:45:49;;;;;;;11.10;2.77;;;11.70;99.90;;;;;;7283326;19;20210;-76
2023/03/22 06:48:20;;;;;;;15.63;3.30;;;11.70;99.90;;;;;;7283603;19;20682;-76
2023/03/22 06:51:07;;;;;;;12.07;3.07;;;11.70;99.90;;;;;;7261641;19;20205;-76
2023/03/22 06:53:34;;;;;;;14.30;2.67;;;11.90;99.90;;;;;;7304502;19;20205;-76
2023/03/22 06:56:02;;;;;;;14.47;2.87;;;12.10;99.90;;;;;;7282319;19;20177;-76
2023/03/22 06:58:28;;;;;;;12.03;2.23;;;12.20;99.90;;;;;;7282392;19;20212;-76
2023/03/22 07:00:55;;;;;;;9.67;2.13;;;12.60;99.90;;;;;;7281619;19;20531;-77
2023/03/22 07:03:23;;;;;;;13.17;2.37;;;12.60;99.90;;;;;;7280527;19;20194;-77
2023/03/22 07:05:58;;;;;;;11.17;2.73;;;12.80;99.90;;;;;;7280613;19;20181;-77
2023/03/22 07:08:24;;;;;;;10.33;2.30;;;13.30;99.90;;;;;;7282038;19;20668;-76
2023/03/22 07:10:51;;;;;;;10.60;2.17;;;13.90;99.90;;;;;;7289281;19;20191;-77
2023/03/22 07:13:20;;;;;;;15.30;2.30;;;14.20;99.90;;;;;;7290622;19;20191;-77
2023/03/22 07:15:48;;;;;;;13.30;2.50;;;13.90;99.90;;;;;;7288768;19;20600;-78
2023/03/22 07:18:32;;;;;;;13.17;2.80;;;13.80;99.90;;;;;;7290229;19;20737;-77
2023/03/22 07:20:58;;;;;;;11.97;2.43;;;13.90;99.90;;;;;;7290198;19;20208;-77
2023/03/22 07:23:25;;;;;;;10.00;2.33;;;13.80;99.90;;;;;;7289030;19;20194;-75
2023/03/22 07:25:54;;;;;;;13.53;2.57;;;13.80;99.90;;;;;;7288947;19;20182;-76
2023/03/22 07:28:25;;;;;;;11.93;2.60;;;14.40;99.90;;;;;;7288665;19;20204;-76
2023/03/22 07:31:01;;;;;;;9.50;2.40;;;15.00;99.90;;;;;;7288158;19;20192;-76
2023/03/22 07:33:28;;;;;;;11.37;2.47;;;15.20;99.90;;;;;;7287412;19;20193;-77
2023/03/22 07:35:55;;;;;;;13.43;2.70;;;14.90;99.90;;;;;;7288708;19;20195;-77
2023/03/22 07:38:21;;;;;;;12.10;2.70;;;14.70;99.90;;;;;;7288346;19;20192;-76
2023/03/22 07:40:49;;;;;;;12.97;2.60;;;14.50;99.90;;;;;;7288553;19;20188;-77
2023/03/22 07:43:15;;;;;;;12.03;2.83;;;14.20;99.90;;;;;;7288112;19;20575;-77
2023/03/22 07:45:51;;;;;;;14.53;2.50;;;14.50;99.90;;;;;;7286187;19;20192;-77
2023/03/22 07:48:33;;;;;;;9.83;2.30;;;14.80;99.90;;;;;;7288580;19;20196;-77
2023/03/22 07:51:37;;;;;;;13.07;2.40;;;14.60;99.90;;;;;;7173881;19;2004715;-76
2023/03/22 07:54:04;;;;;;;12.50;2.60;;;14.30;99.90;;;;;;7309097;19;20684;-76
2023/03/22 07:56:29;;;;;;;14.37;2.73;;;14.00;99.90;;;;;;7287032;19;20192;-77
2023/03/22 07:58:55;;;;;;;14.87;2.73;;;13.90;99.90;;;;;;7288731;19;20238;-76
2023/03/22 08:01:21;;;;;;;12.57;2.43;;;13.70;99.90;;;;;;7288280;19;20689;-76
2023/03/22 08:04:04;;;;;;;12.67;2.63;;;14.00;99.90;;;;;;7287123;19;20181;-76
2023/03/22 08:06:41;;;;;;;11.00;2.13;;;14.10;99.90;;;;;;7263662;19;20183;-77
2023/03/22 08:09:07;;;;;;;13.50;2.50;;;14.00;99.90;;;;;;7291976;19;20222;-76
2023/03/22 08:11:35;;;;;;;12.83;2.20;;;14.00;99.90;;;;;;7308848;19;20197;-77
2023/03/22 08:14:01;;;;;;;13.27;2.33;;;14.00;99.90;;;;;;7287916;19;20207;-77
2023/03/22 08:16:28;;;;;;;14.07;2.50;;;14.00;99.90;;;;;;7287600;19;20190;-77
2023/03/22 08:18:55;;;;;;;12.50;2.77;;;14.10;99.90;;;;;;7286283;19;20699;-77
2023/03/22 08:21:24;;;;;;;10.47;2.40;;;14.50;99.90;;;;;;7285134;19;20183;-76
2023/03/22 08:23:52;;;;;;;11.10;2.57;;;14.80;99.90;;;;;;7286645;19;20196;-77
2023/03/22 08:26:38;;;;;;;9.87;2.63;;;14.90;99.90;;;;;;7265414;19;20184;-77
2023/03/22 08:29:12;;;;;;;12.97;2.87;;;14.70;99.90;;;;;;7286860;19;20193;-77
2023/03/22 08:31:38;;;;;;;11.93;2.40;;;15.10;99.90;;;;;;7285193;19;20195;-77
2023/03/22 08:34:03;;;;;;;14.00;2.57;;;15.00;99.90;;;;;;7309677;19;20573;-77
2023/03/22 08:36:29;;;;;;;13.70;2.50;;;14.90;99.90;;;;;;7286511;19;20200;-77
2023/03/22 08:39:03;;;;;;;12.40;2.80;;;14.70;99.90;;;;;;7286959;19;20932;-77
2023/03/22 08:41:43;;;;;;;11.73;2.50;;;14.80;99.90;;;;;;7185103;19;2004542;-76
2023/03/22 08:44:09;;;;;;;11.70;2.40;;;14.80;99.90;;;;;;7286076;19;20191;-76
2023/03/22 08:46:35;;;;;;;11.50;2.53;;;14.80;99.90;;;;;;7309986;19;20218;-77
2023/03/22 08:49:02;;;;;;;12.40;2.80;;;14.70;99.90;;;;;;7287815;19;20593;-76
2023/03/22 08:51:41;;;;;;;14.67;2.70;;;14.60;99.90;;;;;;7184174;19;2004754;-77
2023/03/22 08:54:17;;;;;;;14.13;2.50;;;14.50;99.90;;;;;;7285225;19;20225;-77
2023/03/22 08:56:51;;;;;;;13.20;2.50;;;14.30;99.90;;;;;;7286240;19;20181;-77
2023/03/22 08:59:40;;;;;;;11.70;2.60;;;14.30;99.90;;;;;;7265297;19;20185;-77
2023/03/22 09:02:24;;;;;;;12.40;2.67;;;14.20;99.90;;;;;;7286305;19;20203;-77
2023/03/22 09:04:51;;;;;;;13.63;3.00;;;14.30;99.90;;;;;;7287282;19;20192;-77
2023/03/22 09:07:19;;;;;;;11.27;2.80;;;14.10;99.90;;;;;;7286722;19;20279;-77
2023/03/22 09:09:52;;;;;;;14.83;3.30;;;14.30;99.90;;;;;;7285249;19;20613;-77
2023/03/22 09:12:17;;;;;;;12.63;3.13;;;14.50;99.90;;;;;;7285828;19;20197;-77
2023/03/22 09:14:45;;;;;;;13.30;2.87;;;14.30;99.90;;;;;;7285225;19;20574;-77
2023/03/22 09:17:11;;;;;;;15.27;2.80;;;14.30;99.90;;;;;;7284966;19;20192;-77
2023/03/22 09:19:37;;;;;;;11.30;2.83;;;14.20;99.90;;;;;;7290192;19;20199;-77
2023/03/22 09:22:03;;;;;;;12.17;2.70;;;14.40;99.90;;;;;;7307544;19;20207;-76
2023/03/22 09:24:37;;;;;;;10.40;2.70;;;14.70;99.90;;;;;;7268709;19;20191;-77
2023/03/22 09:27:03;;;;;;;12.93;2.93;;;14.90;99.90;;;;;;7307967;19;20196;-77
2023/03/22 09:29:29;;;;;;;12.53;2.73;;;14.80;99.90;;;;;;7284549;19;20307;-76
2023/03/22 09:31:56;;;;;;;10.90;2.63;;;14.70;99.90;;;;;;7285035;19;20266;-76
2023/03/22 09:34:27;;;;;;;19.37;3.03;;;14.60;99.90;;;;;;7284770;19;20576;-76
2023/03/22 09:36:53;;;;;;;9.80;2.40;;;14.60;99.90;;;;;;7284842;19;20229;-77
2023/03/22 09:39:23;;;;;;;14.37;2.97;;;14.60;99.90;;;;;;7284498;19;20229;-77
2023/03/22 09:41:57;;;;;;;13.50;2.83;;;14.30;99.90;;;;;;7285501;19;20611;-77
2023/03/22 09:44:28;;;;;;;16.17;2.80;;;13.90;99.90;;;;;;7284431;19;20195;-77
2023/03/22 09:46:58;;;;;;;11.63;2.30;;;13.70;99.90;;;;;;7286014;19;20263;-77
2023/03/22 09:49:29;;;;;;;11.43;2.53;;;13.70;99.90;;;;;;7284824;19;20601;-75
2023/03/22 09:51:55;;;;;;;13.30;2.60;;;13.90;99.90;;;;;;7284995;19;20185;-77
2023/03/22 09:54:32;;;;;;;12.07;3.07;;;14.00;99.90;;;;;;7284944;19;20647;-77
2023/03/22 09:57:02;;;;;;;10.10;2.70;;;14.20;99.90;;;;;;7284249;19;20214;-76
2023/03/22 09:59:44;;;;;;;11.27;2.50;;;14.10;99.90;;;;;;7285032;19;20187;-77
2023/03/22 10:02:37;;;;;;;10.33;2.87;;;14.20;99.90;;;;;;7262334;19;20723;-77
2023/03/22 10:05:16;;;;;;;12.70;3.13;;;14.20;99.90;;;;;;7287069;19;20183;-77
2023/03/22 10:08:13;;;;;;;10.97;2.50;;;14.20;99.90;;;;;;7184105;19;2004612;-78
2023/03/22 10:10:40;;;;;;;10.03;2.07;;;14.30;99.90;;;;;;7262680;19;20191;-78
2023/03/22 10:13:19;;;;;;;12.57;2.53;;;14.20;99.90;;;;;;7297172;19;20196;-77
2023/03/22 10:15:54;;;;;;;9.20;2.07;;;14.10;99.90;;;;;;7283877;19;20193;-77
2023/03/22 10:18:25;;;;;;;10.43;2.40;;;13.90;99.90;;;;;;7285611;19;20181;-78
2023/03/22 10:20:57;;;;;;;12.43;2.40;;;14.00;99.90;;;;;;7284431;19;20655;-77
2023/03/22 10:23:49;;;;;;;11.47;2.33;;;14.00;99.90;;;;;;7284509;19;20185;-77
2023/03/22 10:26:28;;;;;;;11.13;2.30;;;13.80;99.90;;;;;;7182227;19;2004615;-77
2023/03/22 10:29:11;;;;;;;8.27;1.80;;;13.60;99.90;;;;;;7285330;19;20183;-77
2023/03/22 10:31:41;;;;;;;10.37;2.70;;;13.60;99.90;;;;;;7277393;19;20207;-77
2023/03/22 10:34:17;;;;;;;10.27;2.13;;;13.50;99.90;;;;;;7296481;19;20280;-78
2023/03/22 10:36:44;;;;;;;10.77;2.17;;;13.40;99.90;;;;;;7284552;19;20206;-76
2023/03/22 10:39:17;;;;;;;8.70;1.97;;;13.50;99.90;;;;;;7284351;19;20189;-77
2023/03/22 10:41:45;;;;;;;10.47;2.50;;;13.40;99.90;;;;;;7284935;19;20198;-78
2023/03/22 10:44:16;;;;;;;10.13;2.00;;;13.50;99.90;;;;;;7279751;19;20729;-78
2023/03/22 10:46:42;;;;;;;12.67;2.00;;;13.50;99.90;;;;;;7284996;19;20670;-77
2023/03/22 10:49:17;;;;;;;10.87;2.20;;;13.40;99.90;;;;;;7282659;19;20256;-77
2023/03/22 10:51:50;;;;;;;11.53;2.37;;;13.40;99.90;;;;;;7282771;19;20208;-78
2023/03/22 10:54:20;;;;;;;12.73;2.50;;;13.40;99.90;;;;;;7282292;19;20299;-77
2023/03/22 10:56:48;;;;;;;10.23;2.43;;;13.40;99.90;;;;;;7281621;19;20199;-77
2023/03/22 10:59:52;;;;;;;11.23;2.23;;;13.40;99.90;;;;;;7283394;19;20185;-76
2023/03/22 11:02:29;;;;;;;12.37;2.43;;;13.70;99.90;;;;;;7181015;19;2004496;-76
2023/03/22 11:04:58;;;;;;;10.67;2.33;;;13.90;99.90;;;;;;7280583;19;20193;-78
2023/03/22 11:07:36;;;;;;;11.67;2.70;;;13.90;99.90;;;;;;7283780;19;20606;-78
2023/03/22 11:10:08;;;;;;;12.30;2.50;;;14.20;99.90;;;;;;7281573;19;20210;-78
2023/03/22 11:12:42;;;;;;;11.37;2.60;;;14.30;99.90;;;;;;7283467;19;20199;-78
2023/03/22 11:15:24;;;;;;;12.37;2.53;;;14.60;99.90;;;;;;7261595;19;20196;-77
2023/03/22 11:17:53;;;;;;;13.33;2.70;;;14.70;99.90;;;;;;7282917;19;20207;-77
2023/03/22 11:20:19;;;;;;;8.90;2.60;;;14.60;99.90;;;;;;7282053;19;20272;-77
2023/03/22 11:22:46;;;;;;;9.30;2.50;;;14.40;99.90;;;;;;7281719;19;20211;-77
2023/03/22 11:25:21;;;;;;;10.67;2.50;;;14.40;99.90;;;;;;7280996;19;20194;-77
2023/03/22 11:27:53;;;;;;;11.03;2.60;;;14.40;99.90;;;;;;7282211;19;20199;-77
2023/03/22 11:30:24;;;;;;;7.60;2.33;;;14.50;99.90;;;;;;7281872;19;20275;-77
2023/03/22 11:33:07;;;;;;;11.70;2.67;;;14.10;99.90;;;;;;7282588;19;20207;-78
2023/03/22 11:35:36;;;;;;;13.00;3.23;;;14.10;99.90;;;;;;7282868;19;20287;-78
2023/03/22 11:38:02;;;;;;;9.63;2.40;;;14.10;99.90;;;;;;7281545;19;20199;-78
2023/03/22 11:40:34;;;;;;;11.43;2.73;;;14.10;99.90;;;;;;7283326;19;20689;-78
2023/03/22 11:43:09;;;;;;;14.60;2.80;;;14.10;99.90;;;;;;7281621;19;20725;-77
2023/03/22 11:45:39;;;;;;;10.43;3.00;;;14.10;99.90;;;;;;7282654;19;20202;-77
2023/03/22 11:48:08;;;;;;;10.27;2.80;;;14.10;99.90;;;;;;7283434;19;20204;-77
2023/03/22 11:50:37;;;;;;;11.87;2.97;;;14.00;99.90;;;;;;7283469;19;20714;-77
2023/03/22 11:53:06;;;;;;;14.23;3.20;;;14.10;99.90;;;;;;7283374;19;20200;-77
2023/03/22 11:55:35;;;;;;;11.23;3.00;;;14.10;99.90;;;;;;7281903;19;20244;-78
2023/03/22 11:58:05;;;;;;;10.17;2.70;;;14.30;99.90;;;;;;7288278;19;20666;-78
2023/03/22 12:00:36;;;;;;;13.97;3.47;;;14.40;99.90;;;;;;7289600;19;20226;-78
2023/03/22 12:03:12;;;;;;;14.23;3.50;;;14.40;99.90;;;;;;7287811;19;20195;-78
2023/03/22 12:05:41;;;;;;;16.77;3.53;;;14.40;99.90;;;;;;7266940;19;20216;-78
2023/03/22 12:08:27;;;;;;;10.83;3.27;;;14.30;99.90;;;;;;7301884;19;20214;-78
2023/03/22 12:11:07;;;;;;;14.93;3.90;;;14.40;99.90;;;;;;7287958;19;20199;-78
2023/03/22 12:13:50;;;;;;;13.40;4.20;;;14.50;99.90;;;;;;7285821;19;20223;-78
2023/03/22 12:16:21;;;;;;;12.87;4.00;;;14.70;99.90;;;;;;7182951;19;2005039;-77
2023/03/22 12:19:22;;;;;;;11.40;4.40;;;14.90;99.90;;;;;;7286442;19;20194;-78
2023/03/22 12:21:48;;;;;;;13.17;4.67;;;14.70;99.90;;;;;;7196608;19;2004672;-78
2023/03/22 12:24:30;;;;;;;13.20;4.90;;;14.60;99.90;;;;;;7288422;19;20190;-78
2023/03/22 12:27:15;;;;;;;14.03;3.80;;;14.50;99.90;;;;;;7289013;19;20901;-78
2023/03/22 12:29:46;;;;;;;14.80;3.63;;;14.50;99.90;;;;;;7266175;19;20308;-78
2023/03/22 12:32:27;;;;;;;13.10;4.50;;;14.50;99.90;;;;;;7287636;19;20197;-78
2023/03/22 12:34:53;;;;;;;13.07;4.23;;;14.40;99.90;;;;;;7286487;19;20528;-78
2023/03/22 12:37:41;;;;;;;13.07;4.60;;;14.30;99.90;;;;;;7288378;19;20195;-78
2023/03/22 12:40:20;;;;;;;12.37;4.47;;;14.20;99.90;;;;;;7282516;19;20207;-79
2023/03/22 12:43:01;;;;;;;12.47;3.97;;;14.10;99.90;;;;;;7286683;19;20194;-77
2023/03/22 12:45:30;;;;;;;11.33;3.43;;;14.10;99.90;;;;;;7287809;19;20215;-77
2023/03/22 12:48:22;;;;;;;13.07;3.80;;;14.20;99.90;;;;;;7285818;19;20192;-78
2023/03/22 12:51:04;;;;;;;11.23;3.37;;;14.10;99.90;;;;;;7183944;19;2004366;-77
2023/03/22 12:53:41;;;;;;;16.43;3.73;;;14.10;99.90;;;;;;7286207;19;20265;-77
2023/03/22 12:56:34;;;;;;;11.07;3.40;;;13.90;99.90;;;;;;7282449;19;20202;-77
2023/03/22 12:59:06;;;;;;;14.43;3.53;;;13.90;99.90;;;;;;7285666;19;20197;-77
2023/03/22 13:01:38;;;;;;;13.83;3.53;;;13.80;99.90;;;;;;7288010;19;20187;-77
2023/03/22 13:04:35;;;;;;;12.60;3.80;;;13.90;99.90;;;;;;7286142;19;20212;-77